sensor_id;sensor_type;location;lat;lon;timestamp;pressure;altitude;pressure_sealevel;temperature;humidity
64841;BME280;51307;52.162;7.560;2023-07-08T00:00:22;101382.72;;;21.94;39.26
64841;BME280;51307;52.162;7.560;2023-07-08T00:02:48;101378.94;;;21.95;39.23
64841;BME280;51307;52.162;7.560;2023-07-08T00:05:17;101373.69;;;22.19;38.61
64841;BME280;51307;52.162;7.560;2023-07-08T00:07:43;101378.25;;;22.25;38.61
64841;BME280;51307;52.162;7.560;2023-07-08T00:10:20;101370.19;;;21.87;39.57
64841;BME280;51307;52.162;7.560;2023-07-08T00:12:49;101369.88;;;21.76;39.35
64841;BME280;51307;52.162;7.560;2023-07-08T00:15:16;101374.09;;;22.23;38.70
64841;BME280;51307;52.162;7.560;2023-07-08T00:17:42;101362.69;;;22.07;38.63
64841;BME280;51307;52.162;7.560;2023-07-08T00:20:20;101359.59;;;22.04;38.71
64841;BME280;51307;52.162;7.560;2023-07-08T00:22:47;101359.66;;;21.97;39.12
64841;BME280;51307;52.162;7.560;2023-07-08T00:25:16;101352.88;;;21.81;39.54
64841;BME280;51307;52.162;7.560;2023-07-08T00:27:42;101350.66;;;21.71;39.71
64841;BME280;51307;52.162;7.560;2023-07-08T00:32:45;101345.09;;;21.85;39.26
64841;BME280;51307;52.162;7.560;2023-07-08T00:35:10;101343.59;;;21.89;39.18
64841;BME280;51307;52.162;7.560;2023-07-08T00:37:36;101340.81;;;21.70;39.54
64841;BME280;51307;52.162;7.560;2023-07-08T00:40:14;101336.44;;;21.62;39.91
64841;BME280;51307;52.162;7.560;2023-07-08T00:42:42;101333.41;;;21.77;39.70
64841;BME280;51307;52.162;7.560;2023-07-08T00:48:22;101338.31;;;21.62;39.73
64841;BME280;51307;52.162;7.560;2023-07-08T00:50:49;101340.81;;;21.31;40.46
64841;BME280;51307;52.162;7.560;2023-07-08T00:55:52;101336.66;;;21.61;39.80
64841;BME280;51307;52.162;7.560;2023-07-08T00:58:22;101329.38;;;21.23;40.53
64841;BME280;51307;52.162;7.560;2023-07-08T01:00:51;101337.84;;;21.40;39.84
64841;BME280;51307;52.162;7.560;2023-07-08T01:03:19;101339.00;;;21.51;39.91
64841;BME280;51307;52.162;7.560;2023-07-08T01:05:47;101333.81;;;21.49;40.15
64841;BME280;51307;52.162;7.560;2023-07-08T01:08:13;101327.41;;;21.37;40.29
64841;BME280;51307;52.162;7.560;2023-07-08T01:10:53;101324.56;;;20.73;41.58
64841;BME280;51307;52.162;7.560;2023-07-08T01:13:22;101330.19;;;20.78;41.57
64841;BME280;51307;52.162;7.560;2023-07-08T01:15:48;101329.34;;;20.77;41.82
64841;BME280;51307;52.162;7.560;2023-07-08T01:18:17;101320.41;;;20.70;41.98
64841;BME280;51307;52.162;7.560;2023-07-08T01:20:46;101318.47;;;20.77;41.93
64841;BME280;51307;52.162;7.560;2023-07-08T01:23:13;101309.91;;;20.74;42.20
64841;BME280;51307;52.162;7.560;2023-07-08T01:25:42;101303.19;;;20.90;41.52
64841;BME280;51307;52.162;7.560;2023-07-08T01:28:08;101305.00;;;21.03;41.05
64841;BME280;51307;52.162;7.560;2023-07-08T01:30:35;101307.91;;;20.56;42.04
64841;BME280;51307;52.162;7.560;2023-07-08T01:33:05;101302.03;;;20.59;42.00
64841;BME280;51307;52.162;7.560;2023-07-08T01:35:34;101304.13;;;20.57;42.19
64841;BME280;51307;52.162;7.560;2023-07-08T01:38:03;101295.31;;;20.68;42.14
64841;BME280;51307;52.162;7.560;2023-07-08T01:40:35;101303.31;;;20.49;42.36
64841;BME280;51307;52.162;7.560;2023-07-08T01:43:03;101299.78;;;20.49;41.95
64841;BME280;51307;52.162;7.560;2023-07-08T01:45:36;101299.38;;;20.39;42.49
64841;BME280;51307;52.162;7.560;2023-07-08T01:48:07;101299.59;;;20.37;42.60
64841;BME280;51307;52.162;7.560;2023-07-08T01:50:38;101298.16;;;20.28;42.88
64841;BME280;51307;52.162;7.560;2023-07-08T01:53:27;101292.09;;;20.26;42.61
64841;BME280;51307;52.162;7.560;2023-07-08T01:55:53;101282.72;;;20.22;43.04
64841;BME280;51307;52.162;7.560;2023-07-08T01:58:18;101284.56;;;20.28;42.70
64841;BME280;51307;52.162;7.560;2023-07-08T02:00:44;101284.00;;;20.12;43.10
64841;BME280;51307;52.162;7.560;2023-07-08T02:03:09;101284.13;;;20.38;42.24
64841;BME280;51307;52.162;7.560;2023-07-08T02:05:35;101287.31;;;20.14;43.10
64841;BME280;51307;52.162;7.560;2023-07-08T02:08:00;101279.16;;;20.14;42.86
64841;BME280;51307;52.162;7.560;2023-07-08T02:10:26;101262.44;;;20.24;42.86
64841;BME280;51307;52.162;7.560;2023-07-08T02:12:52;101273.53;;;20.03;42.67
64841;BME280;51307;52.162;7.560;2023-07-08T02:15:17;101268.94;;;20.10;43.01
64841;BME280;51307;52.162;7.560;2023-07-08T02:17:43;101259.94;;;20.09;42.69
64841;BME280;51307;52.162;7.560;2023-07-08T02:20:09;101273.94;;;19.99;43.05
64841;BME280;51307;52.162;7.560;2023-07-08T02:22:34;101263.09;;;20.13;43.12
64841;BME280;51307;52.162;7.560;2023-07-08T02:25:00;101266.66;;;20.00;43.14
64841;BME280;51307;52.162;7.560;2023-07-08T02:27:25;101266.25;;;20.03;43.49
64841;BME280;51307;52.162;7.560;2023-07-08T02:29:51;101269.78;;;19.90;43.13
64841;BME280;51307;52.162;7.560;2023-07-08T02:32:16;101256.84;;;19.86;43.45
64841;BME280;51307;52.162;7.560;2023-07-08T02:34:42;101253.47;;;19.97;42.80
64841;BME280;51307;52.162;7.560;2023-07-08T02:37:07;101259.13;;;19.89;43.66
64841;BME280;51307;52.162;7.560;2023-07-08T02:39:33;101248.50;;;19.80;43.62
64841;BME280;51307;52.162;7.560;2023-07-08T02:41:58;101250.97;;;19.89;43.10
64841;BME280;51307;52.162;7.560;2023-07-08T02:44:24;101251.19;;;19.94;43.00
64841;BME280;51307;52.162;7.560;2023-07-08T02:46:51;101244.75;;;19.81;43.56
64841;BME280;51307;52.162;7.560;2023-07-08T02:49:17;101240.56;;;19.79;43.91
64841;BME280;51307;52.162;7.560;2023-07-08T02:51:42;101252.22;;;19.86;43.71
64841;BME280;51307;52.162;7.560;2023-07-08T02:54:08;101247.25;;;19.76;44.02
64841;BME280;51307;52.162;7.560;2023-07-08T02:56:33;101252.66;;;19.76;43.62
64841;BME280;51307;52.162;7.560;2023-07-08T02:58:59;101247.03;;;19.64;43.87
64841;BME280;51307;52.162;7.560;2023-07-08T03:01:25;101250.78;;;19.70;44.50
64841;BME280;51307;52.162;7.560;2023-07-08T03:03:52;101254.78;;;19.61;44.73
64841;BME280;51307;52.162;7.560;2023-07-08T03:06:19;101253.50;;;19.57;45.16
64841;BME280;51307;52.162;7.560;2023-07-08T03:08:44;101249.53;;;19.53;45.20
64841;BME280;51307;52.162;7.560;2023-07-08T03:11:11;101257.28;;;19.56;44.93
64841;BME280;51307;52.162;7.560;2023-07-08T03:13:37;101249.34;;;19.47;45.21
64841;BME280;51307;52.162;7.560;2023-07-08T03:16:03;101245.56;;;19.48;45.38
64841;BME280;51307;52.162;7.560;2023-07-08T03:18:38;101246.44;;;19.49;45.42
64841;BME280;51307;52.162;7.560;2023-07-08T03:21:12;101248.94;;;19.51;45.05
64841;BME280;51307;52.162;7.560;2023-07-08T03:23:38;101240.78;;;19.44;45.34
64841;BME280;51307;52.162;7.560;2023-07-08T03:26:03;101252.91;;;19.41;45.55
64841;BME280;51307;52.162;7.560;2023-07-08T03:28:29;101249.53;;;19.26;45.70
64841;BME280;51307;52.162;7.560;2023-07-08T03:30:54;101251.44;;;19.32;45.92
64841;BME280;51307;52.162;7.560;2023-07-08T03:33:20;101255.59;;;19.35;45.93
64841;BME280;51307;52.162;7.560;2023-07-08T03:35:46;101255.38;;;19.23;45.90
64841;BME280;51307;52.162;7.560;2023-07-08T03:38:11;101251.84;;;19.29;46.19
64841;BME280;51307;52.162;7.560;2023-07-08T03:40:37;101254.78;;;19.27;45.87
64841;BME280;51307;52.162;7.560;2023-07-08T03:43:02;101245.16;;;19.25;46.14
64841;BME280;51307;52.162;7.560;2023-07-08T03:45:28;101241.59;;;19.31;45.12
64841;BME280;51307;52.162;7.560;2023-07-08T03:47:53;101252.66;;;19.23;45.60
64841;BME280;51307;52.162;7.560;2023-07-08T03:50:24;101249.75;;;19.24;46.29
64841;BME280;51307;52.162;7.560;2023-07-08T03:52:54;101249.53;;;19.19;46.65
64841;BME280;51307;52.162;7.560;2023-07-08T03:55:21;101243.88;;;19.14;46.60
64841;BME280;51307;52.162;7.560;2023-07-08T03:57:46;101250.94;;;19.08;47.19
64841;BME280;51307;52.162;7.560;2023-07-08T04:00:13;101249.06;;;19.09;47.37
64841;BME280;51307;52.162;7.560;2023-07-08T04:02:40;101246.78;;;19.06;47.59
64841;BME280;51307;52.162;7.560;2023-07-08T04:05:06;101247.84;;;19.11;47.21
64841;BME280;51307;52.162;7.560;2023-07-08T04:07:33;101251.78;;;19.09;47.52
64841;BME280;51307;52.162;7.560;2023-07-08T04:09:59;101249.50;;;19.12;47.07
64841;BME280;51307;52.162;7.560;2023-07-08T04:12:25;101248.88;;;19.10;47.30
64841;BME280;51307;52.162;7.560;2023-07-08T04:14:50;101250.75;;;19.17;47.28
64841;BME280;51307;52.162;7.560;2023-07-08T04:17:18;101249.91;;;19.16;46.96
64841;BME280;51307;52.162;7.560;2023-07-08T04:19:44;101256.84;;;19.19;46.74
64841;BME280;51307;52.162;7.560;2023-07-08T04:22:10;101254.94;;;19.12;46.99
64841;BME280;51307;52.162;7.560;2023-07-08T04:24:36;101256.38;;;19.15;47.40
64841;BME280;51307;52.162;7.560;2023-07-08T04:27:02;101263.72;;;19.21;47.57
64841;BME280;51307;52.162;7.560;2023-07-08T04:29:28;101268.91;;;19.16;47.45
64841;BME280;51307;52.162;7.560;2023-07-08T04:31:53;101258.03;;;19.16;47.70
64841;BME280;51307;52.162;7.560;2023-07-08T04:34:19;101267.25;;;19.22;47.56
64841;BME280;51307;52.162;7.560;2023-07-08T04:36:46;101273.09;;;19.19;48.58
64841;BME280;51307;52.162;7.560;2023-07-08T04:39:12;101276.03;;;19.24;48.55
64841;BME280;51307;52.162;7.560;2023-07-08T04:41:39;101274.81;;;19.40;47.23
64841;BME280;51307;52.162;7.560;2023-07-08T04:44:07;101267.69;;;19.32;45.80
64841;BME280;51307;52.162;7.560;2023-07-08T04:46:54;101268.53;;;19.39;46.55
64841;BME280;51307;52.162;7.560;2023-07-08T04:49:22;101264.78;;;19.47;47.40
64841;BME280;51307;52.162;7.560;2023-07-08T04:51:49;101270.66;;;19.51;47.24
64841;BME280;51307;52.162;7.560;2023-07-08T04:54:15;101270.44;;;19.52;47.02
64841;BME280;51307;52.162;7.560;2023-07-08T04:56:49;101271.06;;;19.54;48.03
64841;BME280;51307;52.162;7.560;2023-07-08T04:59:20;101273.97;;;19.53;49.00
64841;BME280;51307;52.162;7.560;2023-07-08T05:01:47;101279.41;;;19.59;48.96
64841;BME280;51307;52.162;7.560;2023-07-08T05:04:14;101278.78;;;19.64;48.73
64841;BME280;51307;52.162;7.560;2023-07-08T05:06:41;101276.91;;;19.71;48.48
64841;BME280;51307;52.162;7.560;2023-07-08T05:09:07;101273.97;;;19.66;47.11
64841;BME280;51307;52.162;7.560;2023-07-08T05:11:34;101268.53;;;19.79;47.05
64841;BME280;51307;52.162;7.560;2023-07-08T05:14:01;101275.41;;;19.89;47.39
64841;BME280;51307;52.162;7.560;2023-07-08T05:16:27;101265.38;;;20.09;45.68
64841;BME280;51307;52.162;7.560;2023-07-08T05:18:53;101273.34;;;20.04;46.47
64841;BME280;51307;52.162;7.560;2023-07-08T05:21:20;101263.94;;;20.13;46.01
64841;BME280;51307;52.162;7.560;2023-07-08T05:23:49;101260.56;;;20.18;45.93
64841;BME280;51307;52.162;7.560;2023-07-08T05:26:16;101264.25;;;20.44;46.05
64841;BME280;51307;52.162;7.560;2023-07-08T05:28:41;101266.16;;;20.37;46.02
64841;BME280;51307;52.162;7.560;2023-07-08T05:31:07;101266.53;;;20.47;45.63
64841;BME280;51307;52.162;7.560;2023-07-08T05:33:33;101262.97;;;20.46;45.82
64841;BME280;51307;52.162;7.560;2023-07-08T05:35:59;101260.06;;;20.41;46.68
64841;BME280;51307;52.162;7.560;2023-07-08T05:38:26;101257.88;;;20.70;46.16
64841;BME280;51307;52.162;7.560;2023-07-08T05:40:56;101256.34;;;20.81;45.61
64841;BME280;51307;52.162;7.560;2023-07-08T05:43:22;101256.00;;;20.64;46.51
64841;BME280;51307;52.162;7.560;2023-07-08T05:45:48;101253.28;;;20.64;46.39
64841;BME280;51307;52.162;7.560;2023-07-08T05:48:13;101245.66;;;20.93;46.32
64841;BME280;51307;52.162;7.560;2023-07-08T05:50:39;101246.75;;;20.78;46.12
64841;BME280;51307;52.162;7.560;2023-07-08T05:53:05;101234.00;;;20.72;47.38
64841;BME280;51307;52.162;7.560;2023-07-08T05:55:32;101246.28;;;20.81;46.87
64841;BME280;51307;52.162;7.560;2023-07-08T05:57:57;101242.31;;;20.84;47.60
64841;BME280;51307;52.162;7.560;2023-07-08T06:00:23;101238.75;;;20.84;48.03
64841;BME280;51307;52.162;7.560;2023-07-08T06:02:48;101237.41;;;20.99;46.65
64841;BME280;51307;52.162;7.560;2023-07-08T06:05:14;101238.44;;;21.05;46.46
64841;BME280;51307;52.162;7.560;2023-07-08T06:07:39;101232.28;;;21.17;46.11
64841;BME280;51307;52.162;7.560;2023-07-08T06:10:05;101239.13;;;21.26;45.85
64841;BME280;51307;52.162;7.560;2023-07-08T06:12:31;101229.91;;;21.27;46.24
64841;BME280;51307;52.162;7.560;2023-07-08T06:14:57;101229.53;;;21.48;45.93
64841;BME280;51307;52.162;7.560;2023-07-08T06:17:22;101232.44;;;21.54;45.63
64841;BME280;51307;52.162;7.560;2023-07-08T06:19:48;101232.75;;;21.64;45.13
64841;BME280;51307;52.162;7.560;2023-07-08T06:22:13;101233.91;;;21.75;44.74
64841;BME280;51307;52.162;7.560;2023-07-08T06:24:39;101238.63;;;21.86;44.49
64841;BME280;51307;52.162;7.560;2023-07-08T06:27:05;101231.91;;;21.89;44.34
64841;BME280;51307;52.162;7.560;2023-07-08T06:29:30;101234.00;;;21.87;45.00
64841;BME280;51307;52.162;7.560;2023-07-08T06:31:56;101238.03;;;22.03;43.69
64841;BME280;51307;52.162;7.560;2023-07-08T06:34:22;101245.09;;;22.10;43.55
64841;BME280;51307;52.162;7.560;2023-07-08T06:36:49;101246.69;;;22.18;43.51
64841;BME280;51307;52.162;7.560;2023-07-08T06:39:15;101246.22;;;22.21;42.88
64841;BME280;51307;52.162;7.560;2023-07-08T06:41:42;101247.75;;;22.36;42.44
64841;BME280;51307;52.162;7.560;2023-07-08T06:44:08;101234.31;;;22.34;41.91
64841;BME280;51307;52.162;7.560;2023-07-08T06:46:34;101240.97;;;22.38;41.65
64841;BME280;51307;52.162;7.560;2023-07-08T06:48:59;101240.56;;;22.41;41.48
64841;BME280;51307;52.162;7.560;2023-07-08T06:51:25;101239.19;;;22.51;40.99
64841;BME280;51307;52.162;7.560;2023-07-08T06:53:50;101240.84;;;22.52;40.91
64841;BME280;51307;52.162;7.560;2023-07-08T06:56:16;101245.31;;;22.64;40.72
64841;BME280;51307;52.162;7.560;2023-07-08T06:58:41;101237.50;;;22.68;41.13
64841;BME280;51307;52.162;7.560;2023-07-08T07:01:07;101241.06;;;22.69;41.17
64841;BME280;51307;52.162;7.560;2023-07-08T07:03:32;101238.84;;;22.77;40.72
64841;BME280;51307;52.162;7.560;2023-07-08T07:05:58;101231.97;;;22.87;39.93
64841;BME280;51307;52.162;7.560;2023-07-08T07:08:23;101238.03;;;22.89;40.79
64841;BME280;51307;52.162;7.560;2023-07-08T07:10:49;101239.25;;;22.93;40.09
64841;BME280;51307;52.162;7.560;2023-07-08T07:13:14;101239.63;;;22.96;40.73
64841;BME280;51307;52.162;7.560;2023-07-08T07:15:40;101244.25;;;23.08;40.81
64841;BME280;51307;52.162;7.560;2023-07-08T07:18:06;101250.47;;;23.15;41.72
64841;BME280;51307;52.162;7.560;2023-07-08T07:20:33;101234.84;;;23.22;40.44
64841;BME280;51307;52.162;7.560;2023-07-08T07:22:58;101244.31;;;23.20;38.34
64841;BME280;51307;52.162;7.560;2023-07-08T07:25:23;101238.06;;;23.19;38.59
64841;BME280;51307;52.162;7.560;2023-07-08T07:27:49;101244.09;;;23.21;38.56
64841;BME280;51307;52.162;7.560;2023-07-08T07:30:14;101239.25;;;23.23;37.62
64841;BME280;51307;52.162;7.560;2023-07-08T07:32:42;101242.56;;;23.37;38.71
64841;BME280;51307;52.162;7.560;2023-07-08T07:35:09;101246.25;;;23.43;39.11
64841;BME280;51307;52.162;7.560;2023-07-08T07:37:39;101240.81;;;23.43;38.27
64841;BME280;51307;52.162;7.560;2023-07-08T07:40:09;101239.88;;;23.49;37.79
64841;BME280;51307;52.162;7.560;2023-07-08T07:42:41;101240.56;;;23.56;38.38
64841;BME280;51307;52.162;7.560;2023-07-08T07:45:07;101245.69;;;23.64;38.82
64841;BME280;51307;52.162;7.560;2023-07-08T07:47:34;101242.38;;;23.62;39.02
64841;BME280;51307;52.162;7.560;2023-07-08T07:49:59;101243.06;;;23.70;39.03
64841;BME280;51307;52.162;7.560;2023-07-08T07:52:25;101235.00;;;23.75;39.17
64841;BME280;51307;52.162;7.560;2023-07-08T07:54:52;101231.22;;;23.88;38.32
64841;BME280;51307;52.162;7.560;2023-07-08T07:57:17;101229.09;;;23.90;38.51
64841;BME280;51307;52.162;7.560;2023-07-08T07:59:43;101236.22;;;23.91;38.60
64841;BME280;51307;52.162;7.560;2023-07-08T08:02:08;101228.72;;;23.98;38.22
64841;BME280;51307;52.162;7.560;2023-07-08T08:04:34;101232.13;;;24.05;38.54
64841;BME280;51307;52.162;7.560;2023-07-08T08:07:00;101232.00;;;24.12;38.37
64841;BME280;51307;52.162;7.560;2023-07-08T08:09:25;101235.94;;;24.16;38.10
64841;BME280;51307;52.162;7.560;2023-07-08T08:11:51;101228.44;;;24.23;38.41
64841;BME280;51307;52.162;7.560;2023-07-08T08:14:17;101234.72;;;24.24;38.68
64841;BME280;51307;52.162;7.560;2023-07-08T08:16:43;101240.28;;;24.29;38.22
64841;BME280;51307;52.162;7.560;2023-07-08T08:19:08;101239.44;;;24.40;37.66
64841;BME280;51307;52.162;7.560;2023-07-08T08:21:34;101241.09;;;24.41;38.96
64841;BME280;51307;52.162;7.560;2023-07-08T08:23:59;101234.66;;;24.47;37.51
64841;BME280;51307;52.162;7.560;2023-07-08T08:26:26;101240.75;;;24.78;38.82
64841;BME280;51307;52.162;7.560;2023-07-08T08:28:51;101236.09;;;24.79;37.07
64841;BME280;51307;52.162;7.560;2023-07-08T08:31:17;101240.31;;;24.98;36.79
64841;BME280;51307;52.162;7.560;2023-07-08T08:33:43;101241.41;;;25.14;37.69
64841;BME280;51307;52.162;7.560;2023-07-08T08:36:09;101238.38;;;25.28;38.33
64841;BME280;51307;52.162;7.560;2023-07-08T08:38:34;101236.28;;;25.35;36.71
64841;BME280;51307;52.162;7.560;2023-07-08T08:41:09;101241.75;;;25.35;36.62
64841;BME280;51307;52.162;7.560;2023-07-08T08:43:39;101243.19;;;25.38;36.07
64841;BME280;51307;52.162;7.560;2023-07-08T08:48:55;101232.44;;;25.53;36.43
64841;BME280;51307;52.162;7.560;2023-07-08T08:51:27;101244.63;;;25.79;36.24
64841;BME280;51307;52.162;7.560;2023-07-08T08:53:57;101236.66;;;25.78;35.68
64841;BME280;51307;52.162;7.560;2023-07-08T08:56:28;101242.66;;;25.92;35.69
64841;BME280;51307;52.162;7.560;2023-07-08T09:01:53;101236.56;;;26.29;37.15
64841;BME280;51307;52.162;7.560;2023-07-08T09:04:30;101229.41;;;26.28;36.32
64841;BME280;51307;52.162;7.560;2023-07-08T09:07:07;101240.50;;;26.38;35.40
64841;BME280;51307;52.162;7.560;2023-07-08T09:09:49;101229.41;;;26.28;33.49
64841;BME280;51307;52.162;7.560;2023-07-08T09:12:21;101238.53;;;26.56;36.28
64841;BME280;51307;52.162;7.560;2023-07-08T09:14:50;101234.56;;;26.69;35.15
64841;BME280;51307;52.162;7.560;2023-07-08T09:17:29;101226.56;;;26.94;36.33
64841;BME280;51307;52.162;7.560;2023-07-08T09:27:46;101237.88;;;26.98;33.92
64841;BME280;51307;52.162;7.560;2023-07-08T09:30:19;101230.09;;;27.17;33.71
64841;BME280;51307;52.162;7.560;2023-07-08T09:32:47;101238.94;;;27.24;34.47
64841;BME280;51307;52.162;7.560;2023-07-08T09:35:26;101229.28;;;27.16;32.70
64841;BME280;51307;52.162;7.560;2023-07-08T09:37:52;101226.34;;;27.28;34.58
64841;BME280;51307;52.162;7.560;2023-07-08T09:40:32;101230.56;;;27.41;33.09
64841;BME280;51307;52.162;7.560;2023-07-08T09:45:48;101228.38;;;27.43;33.06
64841;BME280;51307;52.162;7.560;2023-07-08T09:48:23;101228.38;;;27.81;35.22
64841;BME280;51307;52.162;7.560;2023-07-08T09:50:51;101234.09;;;27.74;32.93
64841;BME280;51307;52.162;7.560;2023-07-08T09:53:17;101221.94;;;27.65;31.27
64841;BME280;51307;52.162;7.560;2023-07-08T09:55:44;101233.31;;;27.79;32.14
64841;BME280;51307;52.162;7.560;2023-07-08T09:58:41;101226.66;;;28.28;35.32
64841;BME280;51307;52.162;7.560;2023-07-08T10:01:33;101229.91;;;28.14;31.95
64841;BME280;51307;52.162;7.560;2023-07-08T10:04:01;101235.16;;;28.16;30.76
64841;BME280;51307;52.162;7.560;2023-07-08T10:06:30;101232.44;;;28.26;30.83
64841;BME280;51307;52.162;7.560;2023-07-08T10:09:12;101238.50;;;28.28;31.92
64841;BME280;51307;52.162;7.560;2023-07-08T10:11:48;101233.28;;;28.32;32.56
64841;BME280;51307;52.162;7.560;2023-07-08T10:14:40;101237.78;;;28.59;32.59
64841;BME280;51307;52.162;7.560;2023-07-08T10:17:15;101222.69;;;28.66;31.25
64841;BME280;51307;52.162;7.560;2023-07-08T10:19:40;101227.31;;;28.50;31.05
64841;BME280;51307;52.162;7.560;2023-07-08T10:30:19;101227.34;;;28.61;30.91
64841;BME280;51307;52.162;7.560;2023-07-08T10:33:07;101224.66;;;28.92;31.01
64841;BME280;51307;52.162;7.560;2023-07-08T10:36:05;101229.09;;;29.24;31.58
64841;BME280;51307;52.162;7.560;2023-07-08T10:41:57;101223.00;;;29.53;30.71
64841;BME280;51307;52.162;7.560;2023-07-08T10:44:34;101224.69;;;29.54;27.98
64841;BME280;51307;52.162;7.560;2023-07-08T10:50:11;101225.22;;;29.66;26.74
64841;BME280;51307;52.162;7.560;2023-07-08T10:52:55;101219.03;;;30.10;27.90
64841;BME280;51307;52.162;7.560;2023-07-08T10:55:37;101223.38;;;30.22;28.08
64841;BME280;51307;52.162;7.560;2023-07-08T11:06:59;101208.94;;;30.40;26.24
64841;BME280;51307;52.162;7.560;2023-07-08T11:09:39;101212.13;;;30.03;27.13
64841;BME280;51307;52.162;7.560;2023-07-08T11:12:26;101207.19;;;29.99;27.11
64841;BME280;51307;52.162;7.560;2023-07-08T11:17:44;101197.91;;;29.70;27.55
64841;BME280;51307;52.162;7.560;2023-07-08T11:22:50;101194.38;;;29.54;27.55
64841;BME280;51307;52.162;7.560;2023-07-08T11:25:20;101187.47;;;29.36;27.01
64841;BME280;51307;52.162;7.560;2023-07-08T11:27:52;101187.22;;;29.32;28.59
64841;BME280;51307;52.162;7.560;2023-07-08T11:30:24;101178.94;;;29.32;28.06
64841;BME280;51307;52.162;7.560;2023-07-08T11:33:11;101191.06;;;29.36;28.23
64841;BME280;51307;52.162;7.560;2023-07-08T11:38:14;101191.59;;;29.43;27.67
64841;BME280;51307;52.162;7.560;2023-07-08T11:40:59;101181.41;;;29.33;27.59
64841;BME280;51307;52.162;7.560;2023-07-08T11:43:36;101183.88;;;29.30;28.01
64841;BME280;51307;52.162;7.560;2023-07-08T11:46:06;101173.97;;;29.29;26.76
64841;BME280;51307;52.162;7.560;2023-07-08T11:48:40;101176.72;;;29.29;27.08
64841;BME280;51307;52.162;7.560;2023-07-08T11:51:16;101174.25;;;29.32;27.67
64841;BME280;51307;52.162;7.560;2023-07-08T11:53:51;101165.97;;;29.38;28.09
64841;BME280;51307;52.162;7.560;2023-07-08T11:56:25;101167.34;;;29.35;28.71
64841;BME280;51307;52.162;7.560;2023-07-08T12:01:40;101161.56;;;29.37;28.17
64841;BME280;51307;52.162;7.560;2023-07-08T12:04:27;101163.75;;;29.40;26.26
64841;BME280;51307;52.162;7.560;2023-07-08T12:09:44;101162.94;;;29.44;26.72
64841;BME280;51307;52.162;7.560;2023-07-08T12:12:23;101149.16;;;29.55;28.48
64841;BME280;51307;52.162;7.560;2023-07-08T12:14:51;101146.41;;;29.55;27.17
64841;BME280;51307;52.162;7.560;2023-07-08T12:17:20;101135.88;;;29.52;26.53
64841;BME280;51307;52.162;7.560;2023-07-08T12:19:47;101141.13;;;29.58;26.54
64841;BME280;51307;52.162;7.560;2023-07-08T12:22:14;101148.88;;;29.61;23.43
64841;BME280;51307;52.162;7.560;2023-07-08T12:24:40;101131.47;;;29.66;23.21
64841;BME280;51307;52.162;7.560;2023-07-08T12:27:08;101140.25;;;29.73;24.68
64841;BME280;51307;52.162;7.560;2023-07-08T12:29:34;101135.31;;;29.70;23.02
64841;BME280;51307;52.162;7.560;2023-07-08T12:32:00;101135.31;;;29.70;22.65
64841;BME280;51307;52.162;7.560;2023-07-08T12:34:26;101128.69;;;29.71;24.52
64841;BME280;51307;52.162;7.560;2023-07-08T12:36:53;101136.41;;;29.74;25.10
64841;BME280;51307;52.162;7.560;2023-07-08T12:39:19;101135.81;;;29.77;25.18
64841;BME280;51307;52.162;7.560;2023-07-08T12:41:46;101128.69;;;29.76;25.31
64841;BME280;51307;52.162;7.560;2023-07-08T12:44:21;101131.41;;;29.81;26.05
64841;BME280;51307;52.162;7.560;2023-07-08T12:46:49;101137.72;;;29.87;26.53
64841;BME280;51307;52.162;7.560;2023-07-08T12:49:16;101132.75;;;29.89;24.50
64841;BME280;51307;52.162;7.560;2023-07-08T12:51:44;101121.94;;;30.03;25.45
64841;BME280;51307;52.162;7.560;2023-07-08T12:54:11;101132.44;;;29.96;25.06
64841;BME280;51307;52.162;7.560;2023-07-08T12:56:40;101139.81;;;30.06;24.00
64841;BME280;51307;52.162;7.560;2023-07-08T12:59:08;101148.97;;;30.11;22.70
64841;BME280;51307;52.162;7.560;2023-07-08T13:01:37;101136.75;;;30.17;23.11
64841;BME280;51307;52.162;7.560;2023-07-08T13:04:11;101140.88;;;30.20;22.45
64841;BME280;51307;52.162;7.560;2023-07-08T13:06:39;101137.84;;;30.22;22.27
64841;BME280;51307;52.162;7.560;2023-07-08T13:11:57;101136.44;;;30.24;24.76
64841;BME280;51307;52.162;7.560;2023-07-08T13:14:25;101138.09;;;30.25;23.38
64841;BME280;51307;52.162;7.560;2023-07-08T13:16:51;101132.59;;;30.20;22.75
64841;BME280;51307;52.162;7.560;2023-07-08T13:19:17;101140.31;;;30.23;23.79
64841;BME280;51307;52.162;7.560;2023-07-08T13:21:44;101138.38;;;30.29;24.34
64841;BME280;51307;52.162;7.560;2023-07-08T13:24:11;101129.50;;;30.32;23.30
64841;BME280;51307;52.162;7.560;2023-07-08T13:26:37;101131.06;;;30.43;24.25
64841;BME280;51307;52.162;7.560;2023-07-08T13:29:13;101139.91;;;30.45;23.84
64841;BME280;51307;52.162;7.560;2023-07-08T13:31:44;101129.97;;;30.44;23.16
64841;BME280;51307;52.162;7.560;2023-07-08T13:34:17;101129.66;;;30.51;24.45
64841;BME280;51307;52.162;7.560;2023-07-08T13:36:46;101133.75;;;30.59;25.52
64841;BME280;51307;52.162;7.560;2023-07-08T13:39:19;101134.81;;;30.63;24.95
64841;BME280;51307;52.162;7.560;2023-07-08T13:41:46;101123.50;;;30.59;24.22
64841;BME280;51307;52.162;7.560;2023-07-08T13:44:12;101132.63;;;30.60;22.35
64841;BME280;51307;52.162;7.560;2023-07-08T13:46:44;101130.88;;;30.74;23.45
64841;BME280;51307;52.162;7.560;2023-07-08T13:51:47;101130.31;;;30.77;23.13
64841;BME280;51307;52.162;7.560;2023-07-08T13:54:40;101135.72;;;30.88;24.25
64841;BME280;51307;52.162;7.560;2023-07-08T13:57:16;101136.78;;;30.92;25.25
64841;BME280;51307;52.162;7.560;2023-07-08T13:59:42;101132.16;;;30.87;24.61
64841;BME280;51307;52.162;7.560;2023-07-08T14:02:15;101137.06;;;30.95;24.22
64841;BME280;51307;52.162;7.560;2023-07-08T14:04:42;101132.59;;;30.99;26.38